Time;durP1;ratioP1;P1;durP2;ratioP2;P2;SDS_P1;SDS_P2;PMS_P1;PMS_P2;Temp;Humidity;BMP_temperature;BMP_pressure;BME280_temperature;BME280_humidity;BME280_pressure;Samples;Min_cycle;Max_cycle;Signal;HPM_P1;HPM_P2
2022/05/14 00:01:06;;;;;;;12.35;6.35;;;14.20;99.90;;;;;;4952373;29;20035;-52
2022/05/14 00:03:34;;;;;;;8.50;4.38;;;14.10;99.90;;;;;;4952549;29;20661;-52
2022/05/14 00:06:02;;;;;;;;;;;14.10;99.90;;;;;;4952762;29;20034;-52
2022/05/14 00:08:29;;;;;;;20.25;6.10;;;14.10;99.90;;;;;;4952823;29;19906;-51
2022/05/14 00:13:40;;;;;;;9.82;5.25;;;14.10;99.90;;;;;;4952079;29;20403;-51
2022/05/14 00:16:07;;;;;;;19.02;6.05;;;14.20;99.90;;;;;;4952450;29;20045;-51
2022/05/14 00:18:34;;;;;;;13.35;6.50;;;14.10;99.90;;;;;;4952225;29;20029;-52
2022/05/14 00:20:59;;;;;;;16.23;6.20;;;14.00;99.90;;;;;;4952102;29;20118;-51
2022/05/14 00:23:27;;;;;;;12.32;5.85;;;13.90;99.90;;;;;;4952010;29;20035;-52
2022/05/14 00:25:53;;;;;;;12.57;5.85;;;13.80;99.90;;;;;;4952920;29;20043;-52
2022/05/14 00:28:19;;;;;;;14.18;5.78;;;13.60;99.90;;;;;;4952361;29;20491;-52
2022/05/14 00:30:44;;;;;;;11.93;6.40;;;13.60;99.90;;;;;;4952385;29;20020;-52
2022/05/14 00:33:11;;;;;;;14.32;5.63;;;13.60;99.90;;;;;;4951637;29;20031;-51
2022/05/14 00:35:37;;;;;;;9.32;5.25;;;13.50;99.90;;;;;;4951987;29;20562;-52
2022/05/14 00:38:04;;;;;;;10.07;5.18;;;13.60;99.90;;;;;;4952149;29;20027;-52
2022/05/14 00:40:33;;;;;;;10.85;5.57;;;13.60;99.90;;;;;;4951102;29;20372;-52
2022/05/14 00:42:59;;;;;;;10.65;5.18;;;13.60;99.90;;;;;;4951724;29;20030;-52
2022/05/14 00:45:26;;;;;;;13.05;5.43;;;13.60;99.90;;;;;;4935203;29;20032;-51
2022/05/14 00:47:54;;;;;;;14.45;5.47;;;13.60;99.90;;;;;;4932372;29;20396;-52
2022/05/14 00:50:48;;;;;;;9.32;4.97;;;13.60;99.90;;;;;;4932845;29;20175;-52
2022/05/14 00:53:21;;;;;;;9.10;5.53;;;13.50;99.90;;;;;;4927769;29;20461;-52
2022/05/14 00:55:50;;;;;;;16.25;5.82;;;13.40;99.90;;;;;;4932543;29;20043;-52
2022/05/14 00:58:46;;;;;;;13.38;6.20;;;13.40;99.90;;;;;;4915521;29;20402;-52
2022/05/14 01:01:13;;;;;;;12.60;5.45;;;13.40;99.90;;;;;;4932885;29;20036;-52
2022/05/14 01:03:39;;;;;;;13.53;6.07;;;13.30;99.90;;;;;;4932535;29;20039;-52
2022/05/14 01:06:08;;;;;;;14.82;6.22;;;13.30;99.90;;;;;;4915798;29;20644;-52
2022/05/14 01:08:34;;;;;;;11.38;5.63;;;13.20;99.90;;;;;;4932734;29;20054;-52
2022/05/14 01:11:00;;;;;;;19.17;6.60;;;12.80;99.90;;;;;;4932585;29;20032;-52
2022/05/14 01:13:27;;;;;;;13.90;8.40;;;12.70;99.90;;;;;;4932390;29;20036;-52
2022/05/14 01:15:56;;;;;;;14.88;8.32;;;12.60;99.90;;;;;;4915215;29;20445;-51
2022/05/14 01:18:24;;;;;;;14.65;7.40;;;12.40;99.90;;;;;;4932594;29;20517;-52
2022/05/14 01:21:04;;;;;;;;;;;12.30;99.90;;;;;;4933065;29;20165;-51
2022/05/14 01:26:35;;;;;;;17.95;7.60;;;12.10;99.90;;;;;;4932862;29;20103;-52
2022/05/14 01:29:13;;;;;;;16.90;8.20;;;12.20;99.90;;;;;;4932474;29;20031;-52
2022/05/14 01:31:39;;;;;;;16.63;7.72;;;12.40;99.90;;;;;;4931932;29;20030;-52
2022/05/14 01:34:10;;;;;;;11.53;7.73;;;12.40;99.90;;;;;;4934062;29;20067;-51
2022/05/14 01:36:38;;;;;;;12.18;6.80;;;12.40;99.90;;;;;;4946168;29;20126;-51
2022/05/14 01:39:05;;;;;;;16.02;7.70;;;12.50;99.90;;;;;;4930329;29;20114;-51
2022/05/14 01:41:30;;;;;;;15.30;7.53;;;12.30;99.90;;;;;;4922323;29;20076;-52
2022/05/14 01:43:56;;;;;;;13.93;7.50;;;12.30;99.90;;;;;;4921650;29;20264;-52
2022/05/14 01:46:22;;;;;;;14.85;7.90;;;12.30;99.90;;;;;;4923374;29;20260;-52
2022/05/14 01:48:49;;;;;;;13.82;7.47;;;12.30;99.90;;;;;;4921051;29;20519;-52
2022/05/14 01:51:15;;;;;;;21.40;7.95;;;12.30;99.90;;;;;;4922238;29;20522;-52
2022/05/14 01:53:41;;;;;;;15.25;7.95;;;12.30;99.90;;;;;;4922808;29;20050;-51
2022/05/14 01:56:06;;;;;;;19.55;7.82;;;12.30;99.90;;;;;;4922674;29;20040;-51
2022/05/14 01:58:38;;;;;;;19.80;8.20;;;12.20;99.90;;;;;;4932933;29;20032;-52
2022/05/14 02:01:07;;;;;;;15.23;8.82;;;12.20;99.90;;;;;;4923400;29;20035;-52
2022/05/14 02:03:34;;;;;;;18.85;8.52;;;12.10;99.90;;;;;;4921015;29;20052;-52
2022/05/14 02:05:59;;;;;;;17.63;9.48;;;12.10;99.90;;;;;;4931899;29;20503;-52
2022/05/14 02:08:25;;;;;;;16.55;10.15;;;12.20;99.90;;;;;;4924179;29;20032;-52
2022/05/14 02:10:51;;;;;;;12.40;7.65;;;12.10;99.90;;;;;;4916935;29;20031;-52
2022/05/14 02:13:17;;;;;;;13.40;8.02;;;12.00;99.90;;;;;;4915885;29;20036;-52
2022/05/14 02:15:43;;;;;;;15.65;7.95;;;12.00;99.90;;;;;;4929859;29;20517;-51
2022/05/14 02:18:09;;;;;;;18.63;9.00;;;12.10;99.90;;;;;;4944067;29;20023;-51
2022/05/14 02:20:35;;;;;;;18.35;8.60;;;12.10;99.90;;;;;;4939150;29;20048;-52
2022/05/14 02:23:01;;;;;;;18.42;9.90;;;11.60;99.90;;;;;;4925219;29;20034;-51
2022/05/14 02:25:27;;;;;;;13.77;8.68;;;11.40;99.90;;;;;;4941117;29;20016;-51
2022/05/14 02:27:53;;;;;;;23.17;9.65;;;11.30;99.90;;;;;;4944581;29;20102;-52
2022/05/14 02:30:18;;;;;;;19.80;9.88;;;11.20;99.90;;;;;;4945249;29;20107;-51
2022/05/14 02:32:44;;;;;;;14.25;8.98;;;11.20;99.90;;;;;;4942778;29;20034;-52
2022/05/14 02:35:10;;;;;;;19.52;8.93;;;11.20;99.90;;;;;;4944884;29;20043;-52
2022/05/14 02:37:35;;;;;;;20.45;9.10;;;11.10;99.90;;;;;;4944622;29;20102;-51
2022/05/14 02:40:01;;;;;;;17.35;9.15;;;10.90;99.90;;;;;;4943382;29;20408;-50
2022/05/14 02:42:27;;;;;;;22.33;9.82;;;10.80;99.90;;;;;;4952480;29;20026;-51
2022/05/14 02:44:52;;;;;;;17.05;8.30;;;10.80;99.90;;;;;;4954085;29;20110;-52
2022/05/14 02:47:18;;;;;;;19.83;9.45;;;10.80;99.90;;;;;;4954142;29;20168;-52
2022/05/14 02:49:44;;;;;;;16.88;9.45;;;10.80;99.90;;;;;;4953620;29;20382;-52
2022/05/14 02:52:10;;;;;;;14.63;8.68;;;10.80;99.90;;;;;;4953782;29;20102;-51
2022/05/14 02:54:37;;;;;;;13.68;8.60;;;10.70;99.90;;;;;;4953772;29;20032;-51
2022/05/14 02:57:03;;;;;;;15.15;9.30;;;11.00;99.90;;;;;;4953852;29;20038;-51
2022/05/14 02:59:29;;;;;;;20.15;9.18;;;10.90;99.90;;;;;;4953707;29;20042;-52
2022/05/14 03:01:55;;;;;;;24.70;10.25;;;11.00;99.90;;;;;;4953231;29;20035;-51
2022/05/14 03:04:24;;;;;;;23.27;10.85;;;11.00;99.90;;;;;;4953177;29;20089;-52
2022/05/14 03:06:51;;;;;;;16.20;9.48;;;11.00;99.90;;;;;;4954249;29;20101;-52
2022/05/14 03:09:16;;;;;;;16.25;8.55;;;10.80;99.90;;;;;;4953618;29;20035;-52
2022/05/14 03:11:42;;;;;;;16.05;9.63;;;10.90;99.90;;;;;;4953512;29;20045;-51
2022/05/14 03:14:09;;;;;;;12.32;8.48;;;11.00;99.90;;;;;;4953494;29;20041;-51
2022/05/14 03:16:35;;;;;;;18.90;10.13;;;11.00;99.90;;;;;;4953608;28;20090;-52
2022/05/14 03:19:00;;;;;;;17.70;8.30;;;11.10;99.90;;;;;;4953597;29;20035;-52
2022/05/14 03:21:26;;;;;;;15.30;8.88;;;10.90;99.90;;;;;;4953042;29;20059;-52
2022/05/14 03:23:52;;;;;;;15.35;8.88;;;10.70;99.90;;;;;;4952796;29;20042;-52
2022/05/14 03:26:17;;;;;;;13.73;8.63;;;10.60;99.90;;;;;;4953699;29;20099;-57
2022/05/14 03:28:43;;;;;;;15.70;9.15;;;10.60;99.90;;;;;;4953542;29;20023;-51
2022/05/14 03:31:09;;;;;;;17.30;10.00;;;10.60;99.90;;;;;;4953486;29;20031;-52
2022/05/14 03:33:35;;;;;;;15.38;8.80;;;10.60;99.90;;;;;;4952497;29;20611;-52
2022/05/14 03:36:00;;;;;;;18.05;9.25;;;10.60;99.90;;;;;;4953229;29;20126;-52
2022/05/14 03:38:26;;;;;;;14.98;9.23;;;10.60;99.90;;;;;;4953007;29;20534;-52
2022/05/14 03:40:52;;;;;;;18.42;9.48;;;10.70;99.90;;;;;;4953293;29;20146;-52
2022/05/14 03:43:17;;;;;;;21.33;10.27;;;10.60;99.90;;;;;;4953034;29;20067;-52
2022/05/14 03:45:43;;;;;;;15.50;9.88;;;10.80;99.90;;;;;;4952604;29;20391;-51
2022/05/14 03:48:08;;;;;;;19.77;10.48;;;10.80;99.90;;;;;;4952820;29;20031;-52
2022/05/14 03:50:34;;;;;;;16.25;9.13;;;10.80;99.90;;;;;;4952961;29;20082;-52
2022/05/14 03:53:00;;;;;;;20.15;9.57;;;11.00;99.90;;;;;;4952658;29;20061;-51
2022/05/14 03:55:26;;;;;;;17.80;9.68;;;11.10;99.90;;;;;;4952859;29;20070;-51
2022/05/14 03:57:51;;;;;;;17.05;9.55;;;11.10;99.90;;;;;;4952698;29;20031;-52
2022/05/14 04:00:19;;;;;;;17.75;10.25;;;11.10;99.90;;;;;;4952899;29;20439;-51
2022/05/14 04:02:47;;;;;;;17.25;9.55;;;11.10;99.90;;;;;;4952249;29;20030;-51
2022/05/14 04:05:16;;;;;;;15.75;9.48;;;11.20;99.90;;;;;;4952385;29;20030;-51
2022/05/14 04:07:43;;;;;;;15.18;9.35;;;11.30;99.90;;;;;;4952451;29;20027;-52
2022/05/14 04:10:12;;;;;;;16.38;9.50;;;11.30;99.90;;;;;;4952748;29;20050;-52
2022/05/14 04:12:38;;;;;;;16.80;9.48;;;11.20;99.90;;;;;;4952366;29;20064;-52
2022/05/14 04:15:07;;;;;;;22.30;9.52;;;11.30;99.90;;;;;;4952385;29;20040;-51
2022/05/14 04:17:32;;;;;;;18.58;9.07;;;11.30;99.90;;;;;;4952154;29;20379;-52
2022/05/14 04:19:58;;;;;;;21.70;9.50;;;11.40;99.90;;;;;;4952078;29;20144;-52
2022/05/14 04:22:24;;;;;;;13.05;9.18;;;11.40;99.90;;;;;;4951801;29;20058;-50
2022/05/14 04:24:49;;;;;;;16.55;10.05;;;11.50;99.90;;;;;;4951913;29;20038;-53
2022/05/14 04:27:15;;;;;;;22.42;11.32;;;11.60;99.90;;;;;;4952092;28;20031;-51
2022/05/14 04:29:41;;;;;;;13.10;9.52;;;11.60;99.90;;;;;;4952276;29;20075;-51
2022/05/14 04:32:07;;;;;;;17.90;9.52;;;11.50;99.90;;;;;;4951953;29;20023;-52
2022/05/14 04:34:33;;;;;;;16.58;9.60;;;11.60;99.90;;;;;;4952179;29;20035;-52
2022/05/14 04:36:59;;;;;;;14.90;8.88;;;11.70;99.90;;;;;;4952076;29;20031;-52
2022/05/14 04:39:31;;;;;;;16.92;9.80;;;11.80;99.90;;;;;;4934835;29;20574;-51
2022/05/14 04:42:02;;;;;;;20.33;10.10;;;11.90;99.90;;;;;;4951647;29;20514;-51
2022/05/14 04:44:29;;;;;;;18.98;9.38;;;12.00;99.90;;;;;;4951906;29;20039;-51
2022/05/14 04:46:55;;;;;;;22.42;9.13;;;12.10;99.90;;;;;;4948877;29;20174;-51
2022/05/14 04:49:20;;;;;;;16.65;9.23;;;12.20;99.90;;;;;;4932702;29;20488;-52
2022/05/14 04:51:47;;;;;;;17.20;9.20;;;12.30;99.90;;;;;;4899628;29;20500;-51
2022/05/14 04:54:13;;;;;;;16.97;9.37;;;12.40;99.90;;;;;;4932116;29;20543;-51
2022/05/14 04:56:39;;;;;;;16.58;10.23;;;12.50;99.90;;;;;;4932556;29;20374;-51
2022/05/14 04:59:04;;;;;;;16.85;9.43;;;12.50;99.90;;;;;;4932775;29;20043;-51
2022/05/14 05:01:30;;;;;;;14.50;9.57;;;12.60;99.90;;;;;;4932507;29;20031;-51
2022/05/14 05:03:57;;;;;;;14.85;8.93;;;12.60;99.90;;;;;;4932029;29;20032;-52
2022/05/14 05:06:23;;;;;;;17.25;9.35;;;12.70;99.90;;;;;;4932368;29;20468;-52
2022/05/14 05:08:52;;;;;;;13.00;8.18;;;12.70;99.90;;;;;;4932485;29;20047;-51
2022/05/14 05:11:18;;;;;;;20.65;8.80;;;12.80;99.90;;;;;;4932588;29;20510;-50
2022/05/14 05:13:45;;;;;;;15.98;8.82;;;12.80;99.90;;;;;;4931919;29;20039;-51
2022/05/14 05:16:11;;;;;;;17.70;9.43;;;12.90;99.90;;;;;;4932235;29;20051;-52
2022/05/14 05:18:37;;;;;;;20.38;9.25;;;12.90;99.90;;;;;;4932478;29;20117;-52
2022/05/14 05:21:05;;;;;;;19.92;10.35;;;13.00;99.90;;;;;;4932361;29;20089;-52
2022/05/14 05:23:30;;;;;;;;;;;13.00;99.90;;;;;;4932441;29;20568;-52
2022/05/14 05:25:57;;;;;;;25.17;10.45;;;13.00;99.90;;;;;;4932179;29;20037;-52
2022/05/14 05:28:28;;;;;;;24.88;10.30;;;13.00;99.90;;;;;;4932609;29;20020;-52
2022/05/14 05:30:57;;;;;;;16.75;9.15;;;12.90;99.90;;;;;;4932496;29;20365;-51
2022/05/14 05:33:25;;;;;;;19.55;10.15;;;13.00;99.90;;;;;;4932188;29;20521;-52
2022/05/14 05:35:52;;;;;;;19.38;8.35;;;12.90;99.90;;;;;;4931803;29;20066;-51
2022/05/14 05:38:17;;;;;;;23.23;8.63;;;12.90;99.90;;;;;;4932524;29;20034;-51
2022/05/14 05:40:44;;;;;;;15.40;8.93;;;12.90;99.90;;;;;;4936997;29;20039;-51
2022/05/14 05:43:10;;;;;;;24.40;10.10;;;13.10;99.90;;;;;;4955012;29;20059;-51
2022/05/14 05:45:38;;;;;;;20.02;9.88;;;13.20;99.90;;;;;;4954689;29;20059;-52
2022/05/14 05:48:05;;;;;;;15.68;9.25;;;13.40;99.90;;;;;;4953770;29;20455;-52
2022/05/14 05:50:31;;;;;;;22.00;9.60;;;13.50;99.90;;;;;;4938553;29;20023;-52
2022/05/14 05:52:57;;;;;;;18.17;9.07;;;13.50;99.90;;;;;;4954748;29;20031;-52
2022/05/14 05:58:08;;;;;;;18.70;9.35;;;13.70;99.90;;;;;;4954907;29;20049;-50
2022/05/14 06:00:34;;;;;;;14.13;8.25;;;13.80;99.90;;;;;;4955262;29;20038;-51
2022/05/14 06:03:00;;;;;;;18.48;8.05;;;13.90;99.90;;;;;;4954293;29;20024;-52
2022/05/14 06:05:26;;;;;;;13.60;6.43;;;14.10;99.90;;;;;;4955078;29;20109;-51
2022/05/14 06:07:53;;;;;;;13.98;6.80;;;14.30;99.90;;;;;;4954385;29;20031;-51
2022/05/14 06:10:21;;;;;;;13.10;6.53;;;14.20;99.90;;;;;;4955225;29;20534;-52
2022/05/14 06:12:47;;;;;;;14.40;6.57;;;14.00;99.90;;;;;;4952788;29;20035;-52
2022/05/14 06:15:16;;;;;;;17.88;7.10;;;14.20;99.90;;;;;;4954684;29;20047;-51
2022/05/14 06:17:43;;;;;;;15.20;6.30;;;14.30;99.90;;;;;;4953790;29;20031;-51
2022/05/14 06:20:11;;;;;;;12.95;7.07;;;14.20;99.90;;;;;;4916596;29;20111;-51
2022/05/14 06:22:40;;;;;;;14.45;6.82;;;14.10;99.90;;;;;;4928650;29;20035;-51
2022/05/14 06:25:07;;;;;;;10.65;6.15;;;14.20;99.90;;;;;;4940384;29;20031;-51
2022/05/14 06:27:33;;;;;;;17.42;6.40;;;14.20;99.90;;;;;;4940935;29;20499;-51
2022/05/14 06:29:58;;;;;;;14.10;6.63;;;14.30;99.90;;;;;;4939793;29;20352;-50
2022/05/14 06:32:24;;;;;;;16.17;5.95;;;14.20;99.90;;;;;;4937966;29;20521;-51
2022/05/14 06:34:50;;;;;;;18.50;6.95;;;14.30;99.90;;;;;;4934780;29;20044;-52
2022/05/14 06:37:16;;;;;;;14.95;5.90;;;14.50;99.90;;;;;;4934823;29;20110;-51
2022/05/14 06:39:42;;;;;;;13.73;5.88;;;14.50;99.90;;;;;;4937139;29;20019;-51
2022/05/14 06:42:08;;;;;;;14.35;6.13;;;14.60;99.90;;;;;;4942729;29;20046;-50
2022/05/14 06:44:34;;;;;;;18.83;6.15;;;14.80;99.90;;;;;;4942861;29;20170;-52
2022/05/14 06:47:00;;;;;;;12.00;4.78;;;14.90;99.90;;;;;;4943378;29;20810;-52
2022/05/14 06:49:25;;;;;;;9.77;4.07;;;15.00;99.90;;;;;;4943722;29;20031;-52
2022/05/14 06:51:52;;;;;;;8.57;3.30;;;15.10;99.90;;;;;;4941606;29;20024;-51
2022/05/14 06:54:20;;;;;;;10.45;4.07;;;15.10;99.90;;;;;;4943016;29;20061;-51
2022/05/14 06:56:46;;;;;;;;;;;15.30;99.90;;;;;;4944465;29;20118;-51
2022/05/14 06:59:14;;;;;;;8.32;3.10;;;15.30;99.90;;;;;;4936275;29;19943;-52
2022/05/14 07:01:42;;;;;;;10.55;3.30;;;15.30;99.90;;;;;;4946399;29;20042;-52
2022/05/14 07:06:55;;;;;;;8.95;2.95;;;15.30;99.90;;;;;;4953730;29;20488;-51
2022/05/14 07:09:27;;;;;;;14.23;3.75;;;15.40;99.90;;;;;;4953729;29;20028;-51
2022/05/14 07:11:59;;;;;;;10.38;3.42;;;15.30;99.90;;;;;;4953379;29;20118;-52
2022/05/14 07:14:26;;;;;;;7.65;3.10;;;15.30;99.90;;;;;;4953701;29;20034;-50
2022/05/14 07:16:53;;;;;;;6.78;2.60;;;15.30;99.90;;;;;;4953554;29;20027;-51
2022/05/14 07:19:19;;;;;;;9.20;3.30;;;15.50;99.90;;;;;;4952973;29;20479;-50
2022/05/14 07:21:47;;;;;;;13.35;3.15;;;15.70;99.90;;;;;;4953253;29;20106;-51
2022/05/14 07:24:19;;;;;;;5.20;2.40;;;15.50;99.90;;;;;;4953706;29;20023;-51
2022/05/14 07:26:46;;;;;;;12.82;2.47;;;15.50;99.90;;;;;;4953464;29;20035;-51
2022/05/14 07:29:16;;;;;;;7.10;2.70;;;15.30;99.90;;;;;;4951203;29;20501;-51
2022/05/14 07:31:42;;;;;;;6.50;2.88;;;15.60;99.90;;;;;;4951345;29;20204;-50
2022/05/14 07:34:08;;;;;;;9.60;2.88;;;15.60;99.90;;;;;;4951685;29;20027;-51
2022/05/14 07:36:44;;;;;;;8.07;2.10;;;15.60;99.90;;;;;;4952809;29;20038;-51
2022/05/14 07:39:10;;;;;;;10.40;2.17;;;15.60;99.90;;;;;;4952073;29;20096;-51
2022/05/14 07:41:40;;;;;;;6.35;1.98;;;15.80;99.90;;;;;;4952284;29;20066;-50
2022/05/14 07:44:09;;;;;;;4.93;1.90;;;16.00;99.90;;;;;;4952088;29;20023;-51
2022/05/14 07:46:36;;;;;;;8.15;2.08;;;16.10;99.90;;;;;;4953223;29;20063;-48
2022/05/14 07:49:06;;;;;;;8.07;1.73;;;16.10;99.90;;;;;;4952591;29;20060;-50
2022/05/14 07:51:32;;;;;;;9.98;2.13;;;16.10;99.90;;;;;;4952936;29;20030;-50
2022/05/14 07:53:58;;;;;;;6.47;2.38;;;16.10;99.90;;;;;;4952713;29;20533;-51
2022/05/14 07:56:23;;;;;;;2.97;1.45;;;16.00;99.90;;;;;;4951635;29;20686;-52
2022/05/14 07:58:49;;;;;;;7.65;1.85;;;16.30;99.90;;;;;;4950594;29;20039;-51
2022/05/14 08:01:15;;;;;;;8.43;2.03;;;16.10;99.90;;;;;;4950343;28;20495;-51
2022/05/14 08:03:41;;;;;;;5.82;1.73;;;16.10;99.90;;;;;;4950683;29;20031;-51
2022/05/14 08:06:09;;;;;;;7.78;2.70;;;16.30;99.90;;;;;;4951098;29;20042;-50
2022/05/14 08:08:36;;;;;;;8.25;2.10;;;16.00;99.90;;;;;;4933595;29;20028;-50
2022/05/14 08:11:02;;;;;;;6.80;3.07;;;16.20;99.90;;;;;;4951348;29;20031;-51
2022/05/14 08:13:29;;;;;;;5.05;1.90;;;16.40;99.90;;;;;;4951653;29;20314;-50
2022/05/14 08:15:55;;;;;;;7.82;2.33;;;16.50;99.50;;;;;;4952465;29;20118;-50
2022/05/14 08:18:21;;;;;;;9.38;2.00;;;16.60;99.10;;;;;;4952511;29;20060;-50
2022/05/14 08:20:50;;;;;;;8.00;1.77;;;16.80;99.80;;;;;;4952182;29;20051;-51
2022/05/14 08:26:01;;;;;;;8.10;1.98;;;17.00;96.70;;;;;;4952262;29;20502;-51
2022/05/14 08:28:28;;;;;;;6.82;2.00;;;17.00;96.80;;;;;;4952144;29;20375;-51
2022/05/14 08:30:54;;;;;;;8.73;2.13;;;16.80;96.20;;;;;;4951937;29;20117;-51
2022/05/14 08:33:20;;;;;;;10.35;2.58;;;16.60;96.80;;;;;;4951638;29;20086;-51
2022/05/14 08:35:46;;;;;;;9.65;2.60;;;16.80;98.00;;;;;;4951460;29;20078;-50
2022/05/14 08:38:14;;;;;;;7.88;1.98;;;17.10;99.90;;;;;;4951775;29;20038;-52
2022/05/14 08:40:55;;;;;;;11.02;2.58;;;17.20;96.60;;;;;;4951440;29;20043;-51
2022/05/14 08:43:30;;;;;;;11.85;2.22;;;17.40;97.30;;;;;;4947605;29;20039;-51
2022/05/14 08:45:56;;;;;;;7.32;2.00;;;17.40;95.30;;;;;;4942558;29;20027;-51
2022/05/14 08:48:21;;;;;;;5.95;2.25;;;17.40;95.30;;;;;;4940973;29;20027;-51
2022/05/14 08:51:02;;;;;;;11.48;2.65;;;17.30;95.10;;;;;;4928856;29;20035;-51
2022/05/14 08:53:29;;;;;;;6.45;1.73;;;17.60;94.80;;;;;;4932606;29;20028;-51
2022/05/14 08:56:04;;;;;;;;;;;17.90;93.10;;;;;;4932961;29;20039;-51
2022/05/14 08:58:35;;;;;;;11.68;2.10;;;18.00;93.10;;;;;;4932482;29;19914;-51
2022/05/14 09:01:03;;;;;;;11.57;2.10;;;17.70;92.00;;;;;;4951216;29;20031;-51
2022/05/14 09:03:29;;;;;;;10.05;1.63;;;17.30;92.10;;;;;;4951392;29;20104;-51
2022/05/14 09:05:58;;;;;;;5.63;1.73;;;17.60;92.70;;;;;;4951451;29;20042;-52
2022/05/14 09:08:24;;;;;;;5.53;1.75;;;17.50;90.90;;;;;;4951410;29;20102;-52
2022/05/14 09:11:01;;;;;;;12.63;2.15;;;17.30;90.90;;;;;;4951380;29;20036;-51
2022/05/14 09:13:28;;;;;;;5.43;1.80;;;17.60;91.90;;;;;;4951310;29;20066;-52
2022/05/14 09:15:55;;;;;;;8.80;2.20;;;18.00;90.90;;;;;;4951447;29;20047;-51
2022/05/14 09:18:23;;;;;;;6.38;1.67;;;18.10;91.10;;;;;;4951539;29;20023;-51
2022/05/14 09:21:05;;;;;;;12.45;2.08;;;18.00;90.40;;;;;;4951112;29;20051;-50
2022/05/14 09:23:44;;;;;;;4.03;1.42;;;17.60;90.10;;;;;;4951192;29;20487;-50
2022/05/14 09:26:29;;;;;;;5.82;1.63;;;17.40;90.90;;;;;;4923658;29;20047;-51
2022/05/14 09:28:57;;;;;;;6.00;1.70;;;17.70;91.20;;;;;;4923239;29;20479;-51
2022/05/14 09:31:33;;;;;;;8.20;2.47;;;17.90;89.90;;;;;;4929458;29;20032;-51
2022/05/14 09:34:17;;;;;;;3.92;1.50;;;17.40;91.00;;;;;;4931680;29;20038;-50
2022/05/14 09:36:48;;;;;;;7.40;2.00;;;17.70;90.50;;;;;;4932479;29;20040;-51
2022/05/14 09:39:16;;;;;;;6.03;2.10;;;18.10;90.10;;;;;;4932561;29;20024;-50
2022/05/14 09:41:46;;;;;;;8.27;2.00;;;18.00;89.90;;;;;;4931867;29;20058;-51
2022/05/14 09:44:48;;;;;;;12.95;2.42;;;18.10;88.90;;;;;;4932008;29;20399;-50
2022/05/14 09:47:24;;;;;;;4.40;1.77;;;18.00;88.30;;;;;;4910739;29;20036;-52
2022/05/14 09:50:05;;;;;;;6.60;1.92;;;18.00;90.00;;;;;;4932527;29;20023;-50
2022/05/14 09:52:34;;;;;;;9.43;1.92;;;18.50;90.00;;;;;;4932224;29;20040;-51
2022/05/14 09:55:04;;;;;;;8.82;2.15;;;18.70;85.40;;;;;;4932251;29;20543;-50
2022/05/14 09:57:55;;;;;;;12.95;2.85;;;18.80;84.50;;;;;;4932036;29;20036;-51
2022/05/14 10:00:24;;;;;;;6.40;2.47;;;18.40;85.90;;;;;;4937757;29;20038;-51
2022/05/14 10:03:12;;;;;;;7.15;2.10;;;18.70;88.00;;;;;;4925858;29;20035;-51
2022/05/14 10:06:07;;;;;;;11.20;2.22;;;18.90;87.50;;;;;;4931816;29;20028;-50
2022/05/14 10:09:06;;;;;;;11.48;3.80;;;19.00;84.70;;;;;;4931854;29;20032;-51
2022/05/14 10:11:44;;;;;;;10.98;2.65;;;19.10;82.30;;;;;;4931899;29;20042;-51
2022/05/14 10:14:20;;;;;;;;;;;19.20;78.80;;;;;;4931823;29;20036;-51
2022/05/14 10:17:19;;;;;;;7.78;2.60;;;19.20;80.00;;;;;;4932333;29;20297;-52
2022/05/14 10:19:54;;;;;;;5.65;1.83;;;18.70;80.40;;;;;;4931663;29;20067;-50
2022/05/14 10:26:44;;;;;;;5.18;2.00;;;19.50;77.80;;;;;;4931598;29;20043;-50
2022/05/14 10:28:24;;;;;;;7.55;2.25;;;19.20;77.40;;;;;;4914857;29;20221;-51
2022/05/14 10:31:04;;;;;;;6.75;2.22;;;19.20;77.80;;;;;;4934925;29;20038;-52
2022/05/14 10:33:32;;;;;;;11.02;2.85;;;19.00;77.90;;;;;;4934018;29;20123;-51
2022/05/14 10:36:29;;;;;;;13.90;3.08;;;19.00;74.80;;;;;;4935256;29;20102;-52
2022/05/14 10:39:01;;;;;;;5.93;2.00;;;19.00;71.70;;;;;;4934988;29;20055;-51
2022/05/14 10:41:31;;;;;;;6.88;1.88;;;19.20;71.90;;;;;;4934542;29;20027;-51
2022/05/14 10:44:09;;;;;;;7.85;2.58;;;19.50;70.40;;;;;;4934921;29;20119;-51
2022/05/14 10:46:36;;;;;;;6.38;2.35;;;19.80;71.70;;;;;;4929060;29;20032;-51
2022/05/14 10:49:13;;;;;;;6.18;1.85;;;20.00;70.00;;;;;;4917311;29;20024;-49
2022/05/14 10:51:51;;;;;;;7.88;1.88;;;20.30;68.70;;;;;;4923230;29;20084;-51
2022/05/14 10:54:22;;;;;;;4.55;1.67;;;20.50;67.30;;;;;;4923774;29;20119;-51
2022/05/14 10:56:56;;;;;;;16.08;2.25;;;20.60;68.80;;;;;;4925576;29;20032;-51
2022/05/14 10:59:38;;;;;;;19.48;2.45;;;20.90;66.30;;;;;;4925535;29;20028;-51
2022/05/14 11:02:26;;;;;;;12.35;2.10;;;20.50;67.90;;;;;;4925379;29;20028;-51
2022/05/14 11:04:52;;;;;;;7.35;1.60;;;20.80;64.80;;;;;;4925690;29;20166;-51
2022/05/14 11:07:42;;;;;;;6.85;1.70;;;20.90;65.30;;;;;;4925774;29;20031;-51
2022/05/14 11:10:20;;;;;;;18.77;2.28;;;20.80;65.40;;;;;;4925310;29;20039;-50
2022/05/14 11:12:48;;;;;;;9.95;2.50;;;20.00;65.50;;;;;;4924730;29;20058;-50
2022/05/14 11:15:19;;;;;;;9.68;2.38;;;20.20;67.20;;;;;;4924858;29;20118;-51
2022/05/14 11:17:45;;;;;;;9.35;1.90;;;20.60;67.20;;;;;;4928567;29;20633;-50
2022/05/14 11:20:15;;;;;;;9.20;1.90;;;20.50;67.80;;;;;;4907057;29;20135;-51
2022/05/14 11:22:47;;;;;;;5.97;2.10;;;20.60;66.00;;;;;;4923290;29;20111;-51
2022/05/14 11:25:27;;;;;;;3.92;2.17;;;21.10;64.80;;;;;;4922990;29;20024;-51
2022/05/14 11:27:56;;;;;;;12.60;2.30;;;21.40;62.60;;;;;;4924270;29;20372;-51
2022/05/14 11:30:44;;;;;;;12.55;2.20;;;20.80;62.60;;;;;;4919350;29;20024;-50
2022/05/14 11:33:27;;;;;;;20.45;2.95;;;21.40;66.80;;;;;;4918744;29;20504;-50
2022/05/14 11:36:16;;;;;;;20.25;3.20;;;21.20;64.60;;;;;;4929028;29;20083;-51
2022/05/14 11:38:43;;;;;;;;;;;21.80;62.60;;;;;;4927722;29;20074;-51
2022/05/14 11:41:12;;;;;;;6.30;2.38;;;21.80;62.30;;;;;;4923055;29;19911;-51
2022/05/14 11:43:43;;;;;;;8.57;2.33;;;21.60;63.00;;;;;;4914714;29;20024;-51
2022/05/14 11:46:09;;;;;;;9.85;2.60;;;21.70;64.00;;;;;;4914698;29;20376;-51
2022/05/14 11:49:03;;;;;;;8.27;2.22;;;22.00;62.40;;;;;;4940851;29;20035;-50
2022/05/14 11:51:32;;;;;;;7.32;2.30;;;22.20;62.00;;;;;;4939853;29;20093;-51
2022/05/14 11:54:14;;;;;;;9.75;2.83;;;22.10;63.20;;;;;;4933162;29;20036;-51
2022/05/14 11:57:01;;;;;;;11.95;3.50;;;22.10;62.20;;;;;;4935668;29;20035;-51
2022/05/14 11:59:48;;;;;;;7.55;2.35;;;22.30;63.10;;;;;;4940525;29;20066;-51
2022/05/14 12:02:23;;;;;;;9.50;3.22;;;22.60;61.10;;;;;;4942233;29;20038;-50
2022/05/14 12:04:55;;;;;;;7.85;2.60;;;22.90;62.20;;;;;;4941774;29;20397;-51
2022/05/14 12:07:41;;;;;;;6.57;2.28;;;23.20;59.30;;;;;;4927435;29;20045;-51
2022/05/14 12:10:25;;;;;;;13.05;3.28;;;23.30;59.30;;;;;;4944084;29;20058;-51
2022/05/14 12:13:11;;;;;;;7.82;3.25;;;23.20;59.50;;;;;;5011835;23;20042;-93
2022/05/14 12:15:49;;;;;;;14.05;3.22;;;23.40;59.50;;;;;;4982240;28;20035;-87
2022/05/14 12:18:16;;;;;;;8.63;3.05;;;23.50;59.50;;;;;;4968225;28;20031;-89
2022/05/14 12:20:44;;;;;;;7.97;2.58;;;23.50;58.60;;;;;;4965185;28;20027;-90
2022/05/14 12:23:14;;;;;;;36.75;3.65;;;23.60;60.40;;;;;;4964571;28;20023;-90
2022/05/14 12:25:45;;;;;;;6.22;2.60;;;23.70;58.40;;;;;;4947238;28;20024;-86
2022/05/14 12:28:33;;;;;;;8.68;2.70;;;23.90;59.40;;;;;;4945184;28;20030;-91
2022/05/14 12:34:03;;;;;;;6.90;2.72;;;24.20;58.60;;;;;;4956264;28;20041;-88
2022/05/14 12:36:35;;;;;;;8.25;3.20;;;23.80;57.80;;;;;;4945016;28;20520;-89
2022/05/14 12:39:09;;;;;;;7.50;2.42;;;23.80;58.90;;;;;;4967358;28;20019;-91
2022/05/14 12:41:41;;;;;;;4.53;2.28;;;24.30;59.70;;;;;;4941690;28;20023;-87
2022/05/14 12:44:22;;;;;;;6.18;3.00;;;24.30;57.10;;;;;;4957693;28;20030;-87
2022/05/14 12:46:54;;;;;;;13.27;2.50;;;24.20;55.90;;;;;;4956465;28;20092;-87
2022/05/14 12:49:44;;;;;;;9.73;2.90;;;24.10;57.40;;;;;;4944613;28;20805;-87
2022/05/14 12:52:16;;;;;;;8.25;3.00;;;24.20;57.80;;;;;;4947996;28;20055;-86
2022/05/14 12:55:06;;;;;;;10.88;3.15;;;24.00;56.30;;;;;;4958985;28;20456;-85
2022/05/14 12:57:37;;;;;;;8.07;3.47;;;23.70;57.50;;;;;;4961364;28;20019;-87
2022/05/14 13:00:04;;;;;;;9.40;2.90;;;23.80;56.80;;;;;;4941498;28;20030;-88
2022/05/14 13:02:53;;;;;;;7.50;3.00;;;23.80;56.60;;;;;;4943324;28;20026;-87
2022/05/14 13:05:31;;;;;;;9.80;2.70;;;23.50;58.30;;;;;;4957092;28;20063;-86
2022/05/14 13:08:04;;;;;;;9.32;4.20;;;23.80;60.50;;;;;;4943010;28;20019;-88
2022/05/14 13:10:31;;;;;;;6.05;2.55;;;23.80;57.90;;;;;;4943474;28;20023;-86
2022/05/14 13:13:03;;;;;;;8.85;3.33;;;24.20;58.50;;;;;;4945722;28;20063;-87
2022/05/14 13:15:38;;;;;;;6.68;2.90;;;24.20;55.80;;;;;;4946392;28;20057;-88
2022/05/14 13:18:31;;;;;;;12.25;3.80;;;24.30;56.50;;;;;;4946022;28;20031;-87